createdAt,value
2022-12-06T00:01:59.186Z,2.44
2022-12-06T00:04:27.277Z,2.36
2022-12-06T00:06:57.450Z,2.34
2022-12-06T00:09:27.633Z,2.40
2022-12-06T00:11:55.458Z,2.46
2022-12-06T00:14:23.574Z,2.49
2022-12-06T00:16:51.743Z,2.52
2022-12-06T00:19:21.008Z,2.48
2022-12-06T00:21:48.728Z,2.43
2022-12-06T00:24:20.479Z,2.46
2022-12-06T00:26:50.126Z,2.52
2022-12-06T00:29:19.544Z,2.45
2022-12-06T00:31:47.447Z,2.56
2022-12-06T00:34:15.379Z,2.44
2022-12-06T00:36:43.704Z,2.49
2022-12-06T00:39:12.948Z,2.46
2022-12-06T00:41:45.354Z,2.52
2022-12-06T00:44:13.454Z,2.50
2022-12-06T00:46:41.337Z,2.47
2022-12-06T00:49:09.892Z,2.55
2022-12-06T00:51:38.309Z,2.50
2022-12-06T00:54:06.753Z,2.54
2022-12-06T00:56:36.626Z,2.49
2022-12-06T00:59:06.799Z,2.51
2022-12-06T01:01:36.443Z,2.47
2022-12-06T01:04:06.346Z,2.50
2022-12-06T01:06:35.894Z,2.51
2022-12-06T01:09:07.065Z,2.54
2022-12-06T01:11:34.798Z,2.61
2022-12-06T01:14:02.597Z,2.58
2022-12-06T01:16:32.414Z,2.61
2022-12-06T01:19:02.593Z,2.64
2022-12-06T01:21:30.621Z,2.63
2022-12-06T01:23:58.397Z,2.58
2022-12-06T01:26:27.577Z,2.63
2022-12-06T01:28:55.328Z,2.67
2022-12-06T01:31:23.162Z,2.72
2022-12-06T01:33:52.454Z,2.71
2022-12-06T01:36:20.972Z,2.73
2022-12-06T01:38:51.086Z,2.72
2022-12-06T01:41:19.143Z,2.75
2022-12-06T01:43:48.400Z,2.73
2022-12-06T01:46:27.778Z,2.79
2022-12-06T01:49:01.521Z,2.80
2022-12-06T01:51:30.178Z,2.79
2022-12-06T01:53:59.259Z,2.79
2022-12-06T01:56:26.974Z,2.78
2022-12-06T01:58:58.031Z,2.78
2022-12-06T02:01:26.926Z,2.81
2022-12-06T02:03:57.667Z,2.80
2022-12-06T02:06:25.417Z,2.82
2022-12-06T02:08:54.538Z,2.85
2022-12-06T02:11:22.051Z,2.93
2022-12-06T02:13:49.817Z,2.88
2022-12-06T02:16:37.307Z,2.92
2022-12-06T02:19:20.629Z,2.92
2022-12-06T02:21:53.664Z,2.89
2022-12-06T02:24:57.482Z,2.93
2022-12-06T02:27:40.867Z,3.00
2022-12-06T02:30:13.054Z,3.00
2022-12-06T02:32:53.246Z,3.03
2022-12-06T02:35:28.197Z,3.07
2022-12-06T02:38:00.050Z,3.02
2022-12-06T02:40:32.978Z,3.05
2022-12-06T02:43:03.038Z,3.07
2022-12-06T02:45:34.191Z,3.08
2022-12-06T02:48:05.006Z,3.08
2022-12-06T02:50:38.021Z,3.06
2022-12-06T02:53:08.617Z,3.11
2022-12-06T02:55:36.766Z,3.17
2022-12-06T02:58:04.598Z,3.16
2022-12-06T03:00:36.847Z,3.14
2022-12-06T03:03:44.592Z,3.18
2022-12-06T03:06:26.318Z,3.27
2022-12-06T03:09:03.068Z,3.27
2022-12-06T03:11:36.700Z,3.27
2022-12-06T03:14:07.982Z,3.29
2022-12-06T03:16:43.845Z,3.26
2022-12-06T03:19:17.303Z,3.31
2022-12-06T03:21:49.245Z,3.35
2022-12-06T03:24:17.054Z,3.36
2022-12-06T03:26:47.048Z,3.39
2022-12-06T03:29:17.222Z,3.42
2022-12-06T03:31:47.116Z,3.43
2022-12-06T03:34:20.371Z,3.49
2022-12-06T03:36:50.063Z,3.52
2022-12-06T03:39:22.411Z,3.52
2022-12-06T03:41:52.916Z,3.57
2022-12-06T03:44:21.409Z,3.60
2022-12-06T03:46:51.022Z,3.64
2022-12-06T03:49:21.630Z,3.65
2022-12-06T03:51:49.386Z,3.68
2022-12-06T03:54:17.116Z,3.69
2022-12-06T03:56:44.794Z,3.68
2022-12-06T03:59:12.535Z,3.77
2022-12-06T04:01:40.254Z,3.79
2022-12-06T04:04:08.107Z,3.83
2022-12-06T04:06:36.993Z,3.83
2022-12-06T04:09:18.802Z,3.88
2022-12-06T04:11:46.453Z,3.85
2022-12-06T04:14:14.292Z,3.85
2022-12-06T04:16:59.370Z,3.91
2022-12-06T04:19:26.890Z,3.93
2022-12-06T04:22:13.429Z,3.95
2022-12-06T04:24:41.146Z,3.94
2022-12-06T04:27:22.582Z,3.97
2022-12-06T04:30:07.954Z,4.01
2022-12-06T04:32:52.808Z,3.95
2022-12-06T04:35:38.669Z,3.94
2022-12-06T04:38:25.317Z,4.02
2022-12-06T04:40:52.819Z,4.03
2022-12-06T04:43:38.227Z,4.04
2022-12-06T04:46:07.159Z,4.04
2022-12-06T04:48:34.786Z,4.00
2022-12-06T04:51:02.315Z,4.06
2022-12-06T04:53:31.330Z,4.04
2022-12-06T04:56:02.056Z,4.04
2022-12-06T04:58:29.575Z,4.11
2022-12-06T05:00:57.250Z,4.05
2022-12-06T05:03:24.866Z,4.10
2022-12-06T05:05:53.350Z,4.11
2022-12-06T05:08:20.961Z,4.13
2022-12-06T05:10:50.092Z,4.11
2022-12-06T05:13:18.235Z,4.07
2022-12-06T05:15:51.357Z,4.10
2022-12-06T05:18:19.370Z,4.12
2022-12-06T05:20:47.144Z,4.13
2022-12-06T05:23:15.024Z,4.15
2022-12-06T05:25:43.903Z,4.14
2022-12-06T05:28:12.768Z,4.13
2022-12-06T05:30:40.464Z,4.17
2022-12-06T05:33:07.976Z,4.19
2022-12-06T05:35:35.547Z,4.19
2022-12-06T05:38:04.225Z,4.20
2022-12-06T05:40:31.721Z,4.21
2022-12-06T05:42:59.410Z,4.15
2022-12-06T05:45:28.405Z,4.19
2022-12-06T05:47:55.940Z,4.22
2022-12-06T05:50:23.499Z,4.24
2022-12-06T05:52:54.676Z,4.27
2022-12-06T05:55:22.256Z,4.23
2022-12-06T05:57:49.977Z,4.24
2022-12-06T06:00:18.603Z,4.21
2022-12-06T06:02:48.168Z,4.24
2022-12-06T06:05:15.775Z,4.28
2022-12-06T06:07:43.364Z,4.24
2022-12-06T06:10:11.969Z,4.25
2022-12-06T06:12:39.868Z,4.24
2022-12-06T06:15:08.075Z,4.26
2022-12-06T06:17:36.048Z,4.28
2022-12-06T06:20:09.884Z,4.27
2022-12-06T06:22:39.260Z,4.27
2022-12-06T06:25:07.393Z,4.31
2022-12-06T06:27:37.215Z,4.29
2022-12-06T06:30:05.658Z,4.32
2022-12-06T06:32:33.598Z,4.32
2022-12-06T06:35:01.139Z,4.31
2022-12-06T06:37:31.494Z,4.32
2022-12-06T06:39:59.273Z,4.34
2022-12-06T06:42:27.277Z,4.35
2022-12-06T06:44:55.641Z,4.35
2022-12-06T06:47:23.542Z,4.31
2022-12-06T06:49:51.283Z,4.35
2022-12-06T06:52:20.107Z,4.35
2022-12-06T06:54:49.968Z,4.34
2022-12-06T06:57:18.414Z,4.34
2022-12-06T06:59:46.176Z,4.32
2022-12-06T07:02:14.160Z,4.35
2022-12-06T07:04:42.335Z,4.33
2022-12-06T07:07:11.037Z,4.33
2022-12-06T07:09:38.939Z,4.32
2022-12-06T07:12:08.060Z,4.32
2022-12-06T07:14:35.929Z,4.32
2022-12-06T07:17:03.607Z,4.35
2022-12-06T07:19:31.198Z,4.34
2022-12-06T07:21:58.690Z,4.32
2022-12-06T07:24:27.073Z,4.32
2022-12-06T07:26:56.825Z,4.31
2022-12-06T07:29:25.830Z,4.31
2022-12-06T07:31:53.474Z,4.32
2022-12-06T07:34:21.005Z,4.33
2022-12-06T07:36:48.615Z,4.30
2022-12-06T07:39:16.147Z,4.33
2022-12-06T07:42:01.478Z,4.35
2022-12-06T07:44:47.801Z,4.36
2022-12-06T07:47:16.381Z,4.32
2022-12-06T07:49:44.024Z,4.31
2022-12-06T07:52:11.564Z,4.33
2022-12-06T07:54:39.268Z,4.31
2022-12-06T07:57:07.237Z,4.33
2022-12-06T07:59:36.978Z,4.33
2022-12-06T08:02:04.979Z,4.28
2022-12-06T08:04:32.708Z,4.26
2022-12-06T08:07:00.745Z,4.28
2022-12-06T08:09:29.172Z,4.28
2022-12-06T08:11:56.745Z,4.30
2022-12-06T08:14:38.395Z,4.33
2022-12-06T08:17:07.671Z,4.29
2022-12-06T08:19:35.394Z,4.28
2022-12-06T08:22:02.966Z,4.33
2022-12-06T08:24:30.568Z,4.32
2022-12-06T08:26:59.365Z,4.34
2022-12-06T08:29:27.599Z,4.36
2022-12-06T08:31:55.206Z,4.33
2022-12-06T08:34:24.615Z,4.35
2022-12-06T08:36:52.134Z,4.36
2022-12-06T08:39:20.085Z,4.37
2022-12-06T08:41:58.087Z,4.39
2022-12-06T08:44:28.447Z,4.40
2022-12-06T08:46:56.876Z,4.44
2022-12-06T08:49:26.691Z,4.49
2022-12-06T08:51:54.448Z,4.45
2022-12-06T08:54:23.613Z,4.50
2022-12-06T08:56:51.409Z,4.58
2022-12-06T08:59:20.159Z,4.58
2022-12-06T09:01:48.421Z,4.55
2022-12-06T09:04:16.890Z,4.54
2022-12-06T09:06:46.806Z,4.57
2022-12-06T09:09:16.492Z,4.56
2022-12-06T09:11:45.433Z,4.53
2022-12-06T09:14:20.955Z,4.67
2022-12-06T09:16:51.958Z,4.51
2022-12-06T09:19:20.025Z,4.55
2022-12-06T09:21:48.966Z,4.52
2022-12-06T09:24:18.512Z,4.68
2022-12-06T09:26:46.313Z,4.66
2022-12-06T09:29:14.372Z,4.77
2022-12-06T09:31:42.510Z,4.65
2022-12-06T09:34:11.924Z,4.65
2022-12-06T09:36:41.356Z,4.74
2022-12-06T09:39:14.542Z,4.66
2022-12-06T09:42:13.541Z,4.82
2022-12-06T09:44:56.453Z,4.76
2022-12-06T09:47:33.975Z,4.70
2022-12-06T09:50:08.635Z,4.72
2022-12-06T09:52:56.429Z,4.76
2022-12-06T09:55:35.230Z,4.62
2022-12-06T09:58:12.022Z,4.70
2022-12-06T10:00:44.152Z,4.74
2022-12-06T10:03:36.603Z,4.76
2022-12-06T10:06:05.654Z,4.79
2022-12-06T10:08:47.199Z,4.73
2022-12-06T10:11:36.451Z,4.74
2022-12-06T10:14:12.006Z,4.65
2022-12-06T10:16:52.194Z,4.66
2022-12-06T10:19:40.434Z,4.54
2022-12-06T10:22:15.360Z,4.58
2022-12-06T10:24:58.558Z,4.55
2022-12-06T10:27:31.635Z,4.46
2022-12-06T10:30:04.444Z,4.52
2022-12-06T10:32:51.866Z,4.52
2022-12-06T10:35:26.161Z,4.51
2022-12-06T10:38:01.862Z,4.55
2022-12-06T10:40:31.945Z,4.70
2022-12-06T10:43:04.837Z,4.64
2022-12-06T10:45:53.451Z,4.75
2022-12-06T10:48:26.694Z,4.86
2022-12-06T10:50:59.362Z,5.05
2022-12-06T10:53:29.812Z,5.27
2022-12-06T10:55:59.800Z,5.29
2022-12-06T10:58:33.561Z,5.48
2022-12-06T11:01:03.074Z,5.37
2022-12-06T11:03:33.746Z,5.24
2022-12-06T11:06:08.527Z,5.36
2022-12-06T11:08:39.971Z,5.14
2022-12-06T11:11:16.725Z,5.06
2022-12-06T11:13:48.852Z,5.04
2022-12-06T11:16:18.968Z,5.06
2022-12-06T11:18:47.438Z,4.89
2022-12-06T11:21:22.047Z,4.80
2022-12-06T11:23:55.031Z,4.71
2022-12-06T11:26:30.446Z,4.60
2022-12-06T11:29:05.833Z,4.68
2022-12-06T11:31:36.763Z,4.56
2022-12-06T11:34:05.842Z,4.63
2022-12-06T11:36:33.800Z,4.74
2022-12-06T11:39:01.654Z,4.71
2022-12-06T11:41:31.813Z,4.93
2022-12-06T11:44:00.880Z,5.06
2022-12-06T11:46:28.752Z,5.13
2022-12-06T11:49:00.867Z,5.39
2022-12-06T11:51:28.429Z,5.68
2022-12-06T11:54:00.578Z,5.38
2022-12-06T11:56:43.489Z,5.42
2022-12-06T11:59:24.858Z,5.25
2022-12-06T12:01:54.288Z,5.21
2022-12-06T12:04:33.065Z,5.31
2022-12-06T12:07:03.059Z,5.30
2022-12-06T12:09:32.797Z,5.27
2022-12-06T12:12:04.529Z,5.22
2022-12-06T12:14:37.740Z,5.19
2022-12-06T12:17:06.255Z,5.13
2022-12-06T12:19:38.807Z,4.96
2022-12-06T12:22:16.022Z,5.02
2022-12-06T12:27:46.744Z,5.17
2022-12-06T12:30:31.344Z,5.21
2022-12-06T12:33:11.533Z,5.33
2022-12-06T12:35:40.889Z,5.37
2022-12-06T12:38:17.096Z,5.38
2022-12-06T12:40:47.237Z,5.62
2022-12-06T12:43:23.072Z,5.63
2022-12-06T12:46:17.947Z,5.65
2022-12-06T12:48:48.170Z,5.53
2022-12-06T12:51:32.226Z,5.45
2022-12-06T12:54:01.969Z,5.34
2022-12-06T12:57:31.494Z,5.18
2022-12-06T12:59:59.264Z,4.90
2022-12-06T13:03:50.121Z,4.86
2022-12-06T13:06:27.262Z,4.92
2022-12-06T13:08:56.571Z,4.93
2022-12-06T13:11:25.435Z,5.09
2022-12-06T13:13:53.816Z,5.00
2022-12-06T13:16:24.829Z,5.02
2022-12-06T13:18:54.405Z,5.69
2022-12-06T13:21:26.784Z,4.95
2022-12-06T13:24:00.070Z,4.91
2022-12-06T13:26:30.671Z,4.83
2022-12-06T13:29:03.023Z,4.86
2022-12-06T13:31:35.460Z,4.88
2022-12-06T13:34:06.847Z,5.07
2022-12-06T13:36:37.623Z,5.19
2022-12-06T13:39:38.560Z,5.27
2022-12-06T13:42:20.991Z,5.28
2022-12-06T13:44:57.196Z,5.17
2022-12-06T13:47:52.470Z,5.17
2022-12-06T13:50:49.044Z,5.18
2022-12-06T13:53:18.161Z,5.27
2022-12-06T13:55:59.183Z,5.33
2022-12-06T13:58:42.471Z,5.21
2022-12-06T14:01:40.257Z,5.36
2022-12-06T14:04:39.626Z,5.22
2022-12-06T14:09:45.096Z,5.28
2022-12-06T14:12:21.464Z,5.22
2022-12-06T14:15:00.274Z,5.09
2022-12-06T14:18:00.715Z,5.08
2022-12-06T14:20:21.863Z,5.15
2022-12-06T14:22:50.479Z,5.07
2022-12-06T14:25:22.291Z,5.10
2022-12-06T14:27:51.579Z,5.04
2022-12-06T14:30:25.653Z,5.08
2022-12-06T14:32:56.079Z,5.03
2022-12-06T14:35:25.981Z,5.03
2022-12-06T14:37:55.990Z,4.99
2022-12-06T14:40:45.955Z,5.01
2022-12-06T14:43:16.139Z,4.98
2022-12-06T14:45:44.126Z,4.98
2022-12-06T14:48:12.989Z,4.99
2022-12-06T14:50:42.448Z,4.93
2022-12-06T14:53:14.275Z,4.89
2022-12-06T14:55:55.423Z,4.85
2022-12-06T14:58:25.427Z,4.80
2022-12-06T15:00:55.895Z,4.82
2022-12-06T15:03:29.477Z,4.77
2022-12-06T15:06:17.011Z,4.78
2022-12-06T15:08:50.430Z,4.80
2022-12-06T15:11:50.627Z,4.78
2022-12-06T15:14:22.202Z,4.80
2022-12-06T15:17:01.765Z,4.80
2022-12-06T15:19:31.061Z,4.77
2022-12-06T15:21:59.206Z,4.73
2022-12-06T15:24:28.741Z,4.67
2022-12-06T15:26:58.073Z,4.53
2022-12-06T15:29:25.735Z,4.43
2022-12-06T15:31:54.928Z,4.48
2022-12-06T15:34:25.647Z,4.43
2022-12-06T15:37:15.228Z,4.42
2022-12-06T15:39:41.674Z,4.33
2022-12-06T15:42:14.312Z,4.38
2022-12-06T15:44:47.341Z,4.36
2022-12-06T15:47:16.644Z,4.28
2022-12-06T15:49:45.347Z,4.19
2022-12-06T15:52:15.791Z,4.03
2022-12-06T15:54:43.527Z,3.97
2022-12-06T15:57:14.927Z,3.88
2022-12-06T15:59:43.803Z,3.92
2022-12-06T16:02:15.791Z,3.78
2022-12-06T16:04:43.814Z,3.77
2022-12-06T16:07:11.867Z,3.78
2022-12-06T16:09:39.425Z,3.84
2022-12-06T16:12:07.966Z,3.81
2022-12-06T16:14:36.930Z,3.89
2022-12-06T16:17:04.530Z,3.93
2022-12-06T16:19:46.356Z,3.97
2022-12-06T16:22:13.940Z,3.99
2022-12-06T16:24:40.503Z,4.01
2022-12-06T16:27:08.588Z,4.04
2022-12-06T16:29:38.361Z,4.02
2022-12-06T16:32:07.666Z,4.04
2022-12-06T16:34:35.285Z,4.09
2022-12-06T16:37:04.188Z,4.10
2022-12-06T16:39:33.514Z,4.12
2022-12-06T16:42:01.373Z,4.13
2022-12-06T16:44:28.917Z,4.16
2022-12-06T16:46:59.448Z,4.17
2022-12-06T16:49:45.924Z,4.13
2022-12-06T16:52:14.760Z,4.13
2022-12-06T16:54:42.609Z,4.13
2022-12-06T16:57:10.843Z,4.09
2022-12-06T16:59:40.427Z,4.09
2022-12-06T17:02:23.705Z,4.08
2022-12-06T17:04:51.441Z,4.07
2022-12-06T17:07:19.173Z,4.06
2022-12-06T17:09:46.936Z,4.02
2022-12-06T17:12:15.770Z,4.03
2022-12-06T17:14:43.756Z,3.97
2022-12-06T17:17:15.098Z,3.94
2022-12-06T17:19:43.170Z,3.90
2022-12-06T17:22:11.620Z,3.79
2022-12-06T17:24:39.326Z,3.75
2022-12-06T17:27:06.973Z,3.77
2022-12-06T17:29:34.630Z,3.76
2022-12-06T17:32:02.396Z,3.73
2022-12-06T17:34:34.178Z,3.66
2022-12-06T17:37:01.973Z,3.60
2022-12-06T17:39:29.600Z,3.55
2022-12-06T17:42:15.265Z,3.49
2022-12-06T17:44:43.698Z,3.47
2022-12-06T17:47:12.449Z,3.49
2022-12-06T17:49:41.521Z,3.50
2022-12-06T17:52:09.270Z,3.53
2022-12-06T17:54:37.069Z,3.54
2022-12-06T17:57:05.291Z,3.57
2022-12-06T17:59:35.398Z,3.65
2022-12-06T18:02:15.056Z,3.67
2022-12-06T18:04:44.908Z,3.72
2022-12-06T18:07:13.223Z,3.77
2022-12-06T18:09:42.019Z,3.81
2022-12-06T18:12:10.234Z,3.87
2022-12-06T18:14:39.944Z,3.89
2022-12-06T18:17:07.786Z,4.02
2022-12-06T18:19:36.677Z,4.03
2022-12-06T18:22:05.671Z,4.12
2022-12-06T18:24:35.907Z,4.11
2022-12-06T18:27:04.544Z,4.09
2022-12-06T18:29:33.328Z,4.07
2022-12-06T18:32:01.346Z,4.11
2022-12-06T18:34:29.143Z,4.13
2022-12-06T18:36:56.849Z,4.17
2022-12-06T18:39:27.735Z,4.20
2022-12-06T18:41:55.523Z,4.23
2022-12-06T18:44:23.272Z,4.27
2022-12-06T18:46:51.033Z,4.26
2022-12-06T18:49:19.397Z,4.30
2022-12-06T18:51:47.090Z,4.34
2022-12-06T18:54:15.072Z,4.48
2022-12-06T18:56:43.971Z,4.41
2022-12-06T18:59:12.731Z,4.39
2022-12-06T19:01:41.061Z,4.39
2022-12-06T19:04:13.215Z,4.43
2022-12-06T19:06:40.843Z,4.42
2022-12-06T19:09:10.290Z,4.43
2022-12-06T19:11:38.537Z,4.50
2022-12-06T19:14:08.020Z,4.46
2022-12-06T19:16:39.567Z,4.46
2022-12-06T19:19:15.438Z,4.46
2022-12-06T19:21:44.270Z,4.47
2022-12-06T19:24:12.711Z,4.46
2022-12-06T19:26:40.473Z,4.48
2022-12-06T19:29:09.556Z,4.50
2022-12-06T19:31:37.446Z,4.54
2022-12-06T19:34:05.177Z,4.57
2022-12-06T19:36:34.116Z,4.61
2022-12-06T19:39:04.570Z,4.64
2022-12-06T19:41:56.381Z,4.68
2022-12-06T19:44:24.462Z,4.63
2022-12-06T19:46:52.384Z,4.64
2022-12-06T19:49:21.754Z,4.66
2022-12-06T19:51:50.401Z,4.67
2022-12-06T19:54:20.708Z,4.71
2022-12-06T19:56:50.437Z,4.73
2022-12-06T19:59:19.475Z,4.73
2022-12-06T20:01:50.253Z,4.76
2022-12-06T20:04:20.574Z,4.77
2022-12-06T20:06:48.350Z,4.78
2022-12-06T20:09:16.393Z,4.75
2022-12-06T20:12:02.923Z,4.81
2022-12-06T20:14:34.354Z,4.80
2022-12-06T20:17:05.793Z,4.82
2022-12-06T20:19:33.831Z,4.87
2022-12-06T20:22:01.948Z,4.84
2022-12-06T20:24:29.807Z,4.83
2022-12-06T20:26:57.920Z,4.95
2022-12-06T20:29:26.938Z,4.90
2022-12-06T20:31:57.863Z,4.85
2022-12-06T20:34:28.790Z,4.81
2022-12-06T20:36:56.487Z,4.83
2022-12-06T20:39:25.234Z,4.86
2022-12-06T20:41:53.707Z,4.83
2022-12-06T20:44:21.307Z,4.88
2022-12-06T20:46:49.993Z,4.85
2022-12-06T20:49:17.743Z,4.88
2022-12-06T20:51:52.711Z,4.90
2022-12-06T20:54:21.001Z,4.93
2022-12-06T20:56:52.186Z,4.97
2022-12-06T20:59:20.195Z,4.97
2022-12-06T21:01:49.187Z,4.99
2022-12-06T21:04:16.994Z,5.02
2022-12-06T21:06:44.611Z,5.03
2022-12-06T21:09:13.780Z,5.05
2022-12-06T21:11:41.334Z,4.96
2022-12-06T21:14:11.543Z,4.92
2022-12-06T21:16:40.637Z,4.91
2022-12-06T21:19:10.131Z,4.92
2022-12-06T21:21:40.616Z,4.92
2022-12-06T21:24:11.372Z,4.93
2022-12-06T21:26:40.350Z,4.90
2022-12-06T21:29:08.450Z,4.92
2022-12-06T21:31:38.896Z,4.90
2022-12-06T21:34:06.885Z,4.90
2022-12-06T21:36:34.772Z,4.92
2022-12-06T21:39:02.295Z,4.96
2022-12-06T21:41:30.725Z,4.94
2022-12-06T21:44:00.400Z,4.98
2022-12-06T21:46:29.299Z,4.96
2022-12-06T21:48:58.756Z,4.98
2022-12-06T21:51:27.975Z,5.00
2022-12-06T21:53:57.053Z,5.02
2022-12-06T21:56:26.927Z,5.04
2022-12-06T21:58:54.858Z,5.03
2022-12-06T22:01:25.657Z,5.09
2022-12-06T22:03:54.743Z,5.06
2022-12-06T22:06:23.030Z,5.09
2022-12-06T22:08:57.259Z,5.13
2022-12-06T22:11:25.205Z,5.12
2022-12-06T22:13:52.724Z,5.15
2022-12-06T22:16:20.352Z,5.17
2022-12-06T22:18:51.588Z,5.18
2022-12-06T22:21:21.250Z,5.20
2022-12-06T22:23:49.146Z,5.18
2022-12-06T22:26:18.027Z,5.19
2022-12-06T22:28:45.703Z,5.19
2022-12-06T22:31:15.367Z,5.20
2022-12-06T22:33:43.246Z,5.21
2022-12-06T22:36:13.752Z,5.24
2022-12-06T22:38:41.453Z,5.22
2022-12-06T22:41:09.371Z,5.25
2022-12-06T22:43:37.762Z,5.21
2022-12-06T22:46:06.590Z,5.25
2022-12-06T22:48:34.121Z,5.24
2022-12-06T22:51:09.947Z,5.21
2022-12-06T22:53:39.042Z,5.24
2022-12-06T22:56:07.072Z,5.20
2022-12-06T22:58:34.912Z,5.19
2022-12-06T23:01:11.873Z,5.20
2022-12-06T23:03:45.052Z,5.18
2022-12-06T23:06:12.989Z,5.15
2022-12-06T23:08:42.992Z,5.16
2022-12-06T23:11:12.544Z,5.15
2022-12-06T23:13:40.620Z,5.11
2022-12-06T23:16:11.361Z,5.11
2022-12-06T23:18:39.572Z,5.08
2022-12-06T23:21:08.801Z,5.04
2022-12-06T23:23:36.972Z,5.02
2022-12-06T23:26:07.583Z,5.09
2022-12-06T23:28:35.158Z,5.09
2022-12-06T23:31:04.399Z,5.08
2022-12-06T23:33:32.018Z,5.10
2022-12-06T23:36:08.316Z,5.08
2022-12-06T23:38:36.072Z,5.06
2022-12-06T23:41:06.510Z,5.06
2022-12-06T23:43:34.406Z,5.10
2022-12-06T23:46:07.538Z,5.07
2022-12-06T23:48:37.195Z,5.08
2022-12-06T23:51:06.084Z,5.09
2022-12-06T23:53:35.260Z,5.06
2022-12-06T23:56:07.260Z,5.07
2022-12-06T23:58:35.073Z,5.09
